Time;durP1;ratioP1;P1;durP2;ratioP2;P2;SDS_P1;SDS_P2;PMS_P1;PMS_P2;Temp;Humidity;BMP_temperature;BMP_pressure;BME280_temperature;BME280_humidity;BME280_pressure;Samples;Min_cycle;Max_cycle;Signal;HPM_P1;HPM_P2
2023/07/06 00:00:55;;;;;;;7.22;1.80;;;13.70;99.90;;;;;;5008793;28;20073;-48
2023/07/06 00:03:23;;;;;;;3.17;1.83;;;13.70;99.90;;;;;;4990860;28;20467;-48
2023/07/06 00:05:49;;;;;;;2.50;1.60;;;13.70;99.90;;;;;;5008904;28;20399;-48
2023/07/06 00:08:18;;;;;;;5.70;1.65;;;13.70;99.90;;;;;;5008953;28;20026;-51
2023/07/06 00:10:45;;;;;;;3.97;1.88;;;13.70;99.90;;;;;;5008926;28;20042;-53
2023/07/06 00:13:11;;;;;;;3.20;2.03;;;13.70;99.90;;;;;;5008347;28;20068;-53
2023/07/06 00:15:37;;;;;;;3.63;1.80;;;13.70;99.90;;;;;;5008640;28;20475;-51
2023/07/06 00:18:04;;;;;;;2.90;1.55;;;13.70;99.90;;;;;;5008819;28;20493;-52
2023/07/06 00:20:37;;;;;;;6.00;1.70;;;13.70;99.90;;;;;;5023871;28;20169;-52
2023/07/06 00:23:05;;;;;;;3.05;1.55;;;13.70;99.90;;;;;;5009060;28;20060;-50
2023/07/06 00:25:33;;;;;;;5.55;1.70;;;13.70;99.90;;;;;;5012548;28;20120;-51
2023/07/06 00:28:01;;;;;;;2.88;1.77;;;13.70;99.90;;;;;;5012481;28;20030;-50
2023/07/06 00:30:41;;;;;;;3.20;1.83;;;13.70;99.90;;;;;;4994467;28;20029;-52
2023/07/06 00:33:11;;;;;;;5.85;1.83;;;13.70;99.90;;;;;;5011147;28;20405;-50
2023/07/06 00:35:40;;;;;;;4.63;1.70;;;13.80;99.90;;;;;;5026089;28;20030;-50
2023/07/06 00:38:12;;;;;;;3.20;1.88;;;13.70;99.90;;;;;;5012189;28;20052;-50
2023/07/06 00:40:39;;;;;;;3.05;1.58;;;13.80;99.90;;;;;;4994311;28;20030;-50
2023/07/06 00:43:16;;;;;;;3.40;1.90;;;13.80;99.90;;;;;;5011575;28;20022;-53
2023/07/06 00:45:44;;;;;;;3.15;1.73;;;13.80;99.90;;;;;;5027000;28;20048;-53
2023/07/06 00:48:32;;;;;;;3.13;1.67;;;13.80;99.90;;;;;;4994157;28;20126;-52
2023/07/06 00:51:03;;;;;;;3.50;1.73;;;13.80;99.90;;;;;;5011862;28;20080;-53
2023/07/06 00:53:32;;;;;;;6.43;2.05;;;13.80;99.90;;;;;;4993781;28;20042;-53
2023/07/06 00:55:59;;;;;;;;;;;13.90;99.90;;;;;;5012105;28;20101;-49
2023/07/06 00:58:33;;;;;;;5.65;2.50;;;13.90;99.90;;;;;;5011852;28;19959;-52
2023/07/06 01:01:03;;;;;;;4.15;2.00;;;14.00;99.90;;;;;;5026519;28;20506;-51
2023/07/06 01:03:30;;;;;;;5.82;2.22;;;14.00;99.90;;;;;;5011222;28;20398;-49
2023/07/06 01:06:00;;;;;;;3.22;1.60;;;14.00;99.90;;;;;;5026722;28;20269;-52
2023/07/06 01:08:26;;;;;;;2.88;1.70;;;14.10;99.90;;;;;;5011463;28;20037;-51
2023/07/06 01:10:55;;;;;;;3.35;1.73;;;14.10;99.90;;;;;;5018673;28;20056;-51
2023/07/06 01:13:24;;;;;;;4.00;1.80;;;14.10;99.90;;;;;;5010685;28;20337;-52
2023/07/06 01:16:04;;;;;;;8.05;2.13;;;14.00;99.90;;;;;;5012086;28;20091;-51
2023/07/06 01:18:47;;;;;;;3.03;1.70;;;14.00;99.90;;;;;;5031061;28;20029;-49
2023/07/06 01:21:22;;;;;;;5.63;2.30;;;14.00;99.90;;;;;;5011922;28;20033;-53
2023/07/06 01:24:14;;;;;;;3.20;1.73;;;14.00;99.90;;;;;;5031115;28;20462;-51
2023/07/06 01:27:18;;;;;;;4.22;2.00;;;14.00;99.90;;;;;;5031478;28;20072;-53
2023/07/06 01:30:06;;;;;;;6.38;2.30;;;14.00;99.90;;;;;;5013368;28;20083;-53
2023/07/06 01:32:39;;;;;;;4.68;1.90;;;14.00;99.90;;;;;;5013183;28;20034;-53
2023/07/06 01:35:13;;;;;;;4.50;1.92;;;14.00;99.90;;;;;;5012429;28;20116;-53
2023/07/06 01:37:42;;;;;;;3.45;1.75;;;14.00;99.90;;;;;;5031558;28;20066;-53
2023/07/06 01:40:09;;;;;;;3.80;1.88;;;14.00;99.90;;;;;;5030657;28;20041;-49
2023/07/06 01:42:37;;;;;;;3.50;1.80;;;14.00;99.90;;;;;;5012402;28;20033;-49
2023/07/06 01:45:12;;;;;;;3.40;1.90;;;14.00;99.90;;;;;;5012337;28;20065;-52
2023/07/06 01:47:44;;;;;;;3.47;1.88;;;13.90;99.90;;;;;;5030716;28;20125;-53
2023/07/06 01:50:13;;;;;;;5.90;1.85;;;13.90;99.90;;;;;;5012844;28;20069;-49
2023/07/06 01:52:41;;;;;;;3.50;1.83;;;14.00;99.90;;;;;;5030129;28;20041;-50
2023/07/06 01:55:20;;;;;;;3.50;2.15;;;13.90;99.90;;;;;;5012340;28;20056;-53
2023/07/06 01:57:59;;;;;;;3.75;1.83;;;13.90;99.90;;;;;;5012519;28;20504;-50
2023/07/06 02:00:27;;;;;;;6.78;2.20;;;13.80;99.90;;;;;;5012397;28;20037;-53
2023/07/06 02:02:54;;;;;;;5.57;1.90;;;13.80;99.90;;;;;;5029986;28;20179;-49
2023/07/06 02:05:22;;;;;;;5.15;1.80;;;13.80;99.90;;;;;;5029903;28;20037;-53
2023/07/06 02:07:49;;;;;;;6.78;2.40;;;13.80;99.90;;;;;;5012284;28;20037;-48
2023/07/06 02:10:17;;;;;;;5.30;2.00;;;13.70;99.90;;;;;;5030122;28;20482;-51
2023/07/06 02:12:47;;;;;;;4.25;1.98;;;13.70;99.90;;;;;;5011945;28;20103;-53
2023/07/06 02:15:16;;;;;;;4.60;2.50;;;13.70;99.90;;;;;;5011995;28;20237;-52
2023/07/06 02:17:45;;;;;;;6.22;2.30;;;13.70;99.90;;;;;;5012016;28;20068;-51
2023/07/06 02:20:11;;;;;;;;;;;13.70;99.90;;;;;;5012718;28;20037;-52
2023/07/06 02:22:39;;;;;;;5.80;2.33;;;13.60;99.90;;;;;;5045161;28;19909;-52
2023/07/06 02:25:06;;;;;;;5.45;1.98;;;13.70;99.90;;;;;;5029704;28;20135;-52
2023/07/06 02:27:32;;;;;;;5.85;2.55;;;13.60;99.90;;;;;;5029968;28;20037;-52
2023/07/06 02:29:59;;;;;;;5.50;2.63;;;13.60;99.90;;;;;;5030093;28;20173;-49
2023/07/06 02:32:26;;;;;;;9.55;2.35;;;13.60;99.90;;;;;;5011926;28;20033;-53
2023/07/06 02:34:51;;;;;;;4.18;2.10;;;13.60;99.90;;;;;;5011701;28;20068;-51
2023/07/06 02:37:17;;;;;;;5.35;2.30;;;13.60;99.90;;;;;;5011761;28;20158;-52
2023/07/06 02:39:43;;;;;;;4.68;2.42;;;13.50;99.90;;;;;;5011864;28;20470;-49
2023/07/06 02:42:14;;;;;;;6.50;2.45;;;13.50;99.90;;;;;;5011468;28;20033;-49
2023/07/06 02:44:40;;;;;;;5.55;2.17;;;13.50;99.90;;;;;;5029345;28;20021;-52
2023/07/06 02:47:15;;;;;;;5.95;2.50;;;13.40;99.90;;;;;;5010924;28;20048;-51
2023/07/06 02:49:41;;;;;;;4.35;2.10;;;13.40;99.90;;;;;;5011983;28;20045;-52
2023/07/06 02:52:07;;;;;;;7.35;2.50;;;13.40;99.90;;;;;;5029134;28;20033;-50
2023/07/06 02:54:32;;;;;;;4.75;2.38;;;13.40;99.90;;;;;;5011473;28;20458;-52
2023/07/06 02:57:00;;;;;;;3.97;2.25;;;13.30;99.90;;;;;;5011144;28;20025;-52
2023/07/06 02:59:32;;;;;;;5.03;2.25;;;13.30;99.90;;;;;;5029501;28;20056;-53
2023/07/06 03:01:58;;;;;;;4.78;1.70;;;13.30;99.90;;;;;;4994734;28;20025;-53
2023/07/06 03:04:25;;;;;;;4.90;2.40;;;13.30;99.90;;;;;;5011007;28;20029;-53
2023/07/06 03:06:51;;;;;;;4.68;2.28;;;13.30;99.90;;;;;;5029167;28;20394;-52
2023/07/06 03:09:17;;;;;;;5.05;2.67;;;13.20;99.90;;;;;;5029489;28;20025;-48
2023/07/06 03:11:44;;;;;;;5.75;2.03;;;13.20;99.90;;;;;;5010925;28;20045;-48
2023/07/06 03:14:13;;;;;;;3.53;1.92;;;13.20;99.90;;;;;;5029024;28;20033;-51
2023/07/06 03:16:39;;;;;;;4.90;2.20;;;13.20;99.90;;;;;;5011326;28;20080;-49
2023/07/06 03:19:06;;;;;;;4.85;2.20;;;13.20;99.90;;;;;;5029061;28;20098;-51
2023/07/06 03:21:33;;;;;;;5.18;1.88;;;13.10;99.90;;;;;;5011140;28;20033;-48
2023/07/06 03:23:59;;;;;;;4.43;1.73;;;13.10;99.90;;;;;;5010926;28;20029;-50
2023/07/06 03:26:24;;;;;;;4.88;1.90;;;13.10;99.90;;;;;;5029202;28;20048;-52
2023/07/06 03:28:50;;;;;;;3.28;1.75;;;13.00;99.90;;;;;;5029220;28;20041;-52
2023/07/06 03:31:16;;;;;;;4.47;1.70;;;13.00;99.90;;;;;;5028906;28;20053;-53
2023/07/06 03:33:43;;;;;;;4.53;1.70;;;13.00;99.90;;;;;;5028885;28;20033;-52
2023/07/06 03:36:09;;;;;;;3.25;1.92;;;13.00;99.90;;;;;;5011031;28;20112;-53
2023/07/06 03:38:37;;;;;;;5.55;1.73;;;13.00;99.90;;;;;;5011214;28;20520;-53
2023/07/06 03:41:03;;;;;;;5.57;1.90;;;13.00;99.90;;;;;;5011022;28;20030;-53
2023/07/06 03:43:29;;;;;;;4.85;2.10;;;13.00;99.90;;;;;;5010717;28;20116;-53
2023/07/06 03:45:55;;;;;;;6.47;1.98;;;13.00;99.90;;;;;;5010973;28;20033;-53
2023/07/06 03:48:21;;;;;;;5.10;1.73;;;13.00;99.90;;;;;;5028768;28;20030;-50
2023/07/06 03:50:52;;;;;;;3.92;1.55;;;13.00;99.90;;;;;;5029177;28;20043;-53
2023/07/06 03:53:19;;;;;;;5.20;1.90;;;13.00;99.90;;;;;;5028059;28;20509;-52
2023/07/06 03:55:44;;;;;;;4.45;1.55;;;13.10;99.90;;;;;;5028457;28;20401;-50
2023/07/06 03:58:10;;;;;;;3.45;1.55;;;13.00;99.90;;;;;;5031308;28;20039;-49
2023/07/06 04:00:36;;;;;;;3.67;1.45;;;13.00;99.90;;;;;;5032623;28;20049;-50
2023/07/06 04:03:06;;;;;;;5.28;2.03;;;13.00;99.90;;;;;;5032335;28;20523;-50
2023/07/06 04:05:36;;;;;;;4.20;1.40;;;13.00;99.90;;;;;;5032564;28;20096;-49
2023/07/06 04:08:08;;;;;;;5.32;1.60;;;13.10;99.90;;;;;;5032237;28;20133;-50
2023/07/06 04:10:36;;;;;;;9.60;2.22;;;13.10;99.90;;;;;;5032340;28;20505;-52
2023/07/06 04:13:02;;;;;;;7.07;1.65;;;13.10;99.90;;;;;;5032460;28;20038;-49
2023/07/06 04:15:30;;;;;;;5.80;1.65;;;13.10;99.90;;;;;;5032433;28;20040;-49
2023/07/06 04:17:56;;;;;;;5.07;2.03;;;13.00;99.90;;;;;;5032366;28;20034;-53
2023/07/06 04:20:24;;;;;;;3.78;1.70;;;13.10;99.90;;;;;;5032376;28;20343;-49
2023/07/06 04:22:54;;;;;;;3.50;1.80;;;13.10;99.90;;;;;;5032271;28;20459;-48
2023/07/06 04:25:21;;;;;;;9.75;1.92;;;13.20;99.90;;;;;;5032325;28;20033;-49
2023/07/06 04:27:47;;;;;;;4.57;1.95;;;13.20;99.90;;;;;;5030762;28;20541;-50
2023/07/06 04:30:14;;;;;;;6.35;1.85;;;13.20;99.90;;;;;;5012713;28;20142;-48
2023/07/06 04:32:42;;;;;;;5.20;1.67;;;13.30;99.90;;;;;;5012251;28;20133;-50
2023/07/06 04:35:14;;;;;;;6.10;2.90;;;13.30;99.90;;;;;;5011911;28;20069;-49
2023/07/06 04:37:41;;;;;;;4.57;1.40;;;13.30;99.90;;;;;;5012187;28;20449;-53
2023/07/06 04:40:13;;;;;;;4.03;1.73;;;13.40;99.90;;;;;;4994792;28;20398;-49
2023/07/06 04:42:40;;;;;;;4.65;1.85;;;13.50;99.90;;;;;;5012062;28;20467;-52
2023/07/06 04:45:09;;;;;;;2.92;1.50;;;13.60;99.90;;;;;;4994304;28;20498;-49
2023/07/06 04:47:38;;;;;;;5.32;1.67;;;13.60;99.90;;;;;;5012014;28;20474;-51
2023/07/06 04:50:06;;;;;;;6.13;1.98;;;13.70;99.90;;;;;;4994466;28;20038;-52
2023/07/06 04:52:33;;;;;;;4.82;1.58;;;13.70;99.90;;;;;;4994404;28;20046;-53
2023/07/06 04:54:59;;;;;;;3.80;1.45;;;13.80;99.90;;;;;;5012009;28;20030;-53
2023/07/06 04:57:25;;;;;;;5.18;1.42;;;13.80;99.90;;;;;;5012947;28;20370;-50
2023/07/06 04:59:51;;;;;;;6.22;1.65;;;13.90;99.90;;;;;;5011937;28;20022;-48
2023/07/06 05:02:17;;;;;;;7.30;1.52;;;13.90;99.90;;;;;;5011333;28;20029;-50
2023/07/06 05:04:42;;;;;;;4.63;1.77;;;13.90;99.90;;;;;;5011279;28;20032;-48
2023/07/06 05:07:11;;;;;;;4.05;1.63;;;14.00;99.90;;;;;;5011184;28;20049;-48
2023/07/06 05:09:38;;;;;;;;;;;14.00;99.90;;;;;;5011847;28;20108;-49
2023/07/06 05:12:03;;;;;;;5.88;1.40;;;14.10;99.90;;;;;;5011388;28;20225;-48
2023/07/06 05:14:29;;;;;;;7.55;1.40;;;14.10;99.90;;;;;;5008753;28;20152;-49
2023/07/06 05:16:55;;;;;;;5.78;1.35;;;14.10;99.90;;;;;;5006598;28;20037;-51
2023/07/06 05:19:23;;;;;;;4.32;1.65;;;14.10;99.90;;;;;;5008029;28;20060;-49
2023/07/06 05:21:49;;;;;;;6.47;1.92;;;14.20;99.90;;;;;;5002049;28;20026;-53
2023/07/06 05:24:14;;;;;;;3.65;1.48;;;14.20;99.90;;;;;;5002440;28;20040;-53
2023/07/06 05:26:40;;;;;;;8.60;1.90;;;14.30;99.90;;;;;;5006811;28;20033;-51
2023/07/06 05:29:05;;;;;;;7.78;1.80;;;14.40;99.90;;;;;;5010153;28;20066;-50
2023/07/06 05:31:31;;;;;;;6.22;2.38;;;14.40;99.90;;;;;;5011117;28;20029;-53
2023/07/06 05:33:56;;;;;;;8.68;3.92;;;14.30;99.90;;;;;;5011173;28;20072;-52
2023/07/06 05:36:22;;;;;;;9.20;4.40;;;14.40;99.90;;;;;;5011384;28;20506;-49
2023/07/06 05:38:48;;;;;;;5.28;1.60;;;14.40;99.90;;;;;;5011591;28;20033;-51
2023/07/06 05:41:13;;;;;;;5.22;1.70;;;14.50;99.90;;;;;;5011704;28;20077;-48
2023/07/06 05:43:39;;;;;;;4.10;1.60;;;14.50;99.90;;;;;;5010318;28;20080;-48
2023/07/06 05:46:04;;;;;;;5.88;1.70;;;14.60;99.90;;;;;;5011199;28;20026;-51
2023/07/06 05:48:30;;;;;;;5.03;1.85;;;14.60;99.90;;;;;;5011568;28;20407;-53
2023/07/06 05:50:56;;;;;;;5.65;1.70;;;14.70;99.90;;;;;;5011790;28;20034;-51
2023/07/06 05:53:22;;;;;;;6.53;2.20;;;14.70;99.90;;;;;;5010681;28;20045;-53
2023/07/06 05:55:48;;;;;;;3.17;1.75;;;14.80;99.90;;;;;;5026116;28;20033;-53
2023/07/06 05:58:16;;;;;;;6.88;1.83;;;14.90;99.90;;;;;;5011080;28;20327;-52
2023/07/06 06:00:42;;;;;;;5.38;1.58;;;14.90;99.90;;;;;;5011051;28;20045;-51
2023/07/06 06:03:07;;;;;;;4.60;1.73;;;15.00;99.90;;;;;;4992802;28;20104;-52
2023/07/06 06:05:34;;;;;;;6.20;1.77;;;15.10;99.90;;;;;;5028170;28;20121;-50
2023/07/06 06:08:01;;;;;;;4.38;1.83;;;15.10;99.90;;;;;;5010956;28;20089;-51
2023/07/06 06:10:28;;;;;;;4.68;1.85;;;15.20;99.90;;;;;;5010840;28;20061;-53
2023/07/06 06:12:54;;;;;;;13.15;5.28;;;15.20;99.90;;;;;;5008833;28;20533;-50
2023/07/06 06:15:20;;;;;;;8.93;4.32;;;15.30;99.90;;;;;;5010574;28;20129;-50
2023/07/06 06:17:48;;;;;;;10.45;4.30;;;15.30;99.90;;;;;;4993174;28;20030;-51
2023/07/06 06:20:14;;;;;;;9.88;3.50;;;15.40;99.90;;;;;;5010107;28;20521;-51
2023/07/06 06:22:40;;;;;;;9.05;2.30;;;15.40;99.90;;;;;;5009870;28;20066;-51
2023/07/06 06:25:06;;;;;;;8.05;1.88;;;15.70;99.90;;;;;;5010694;28;20425;-49
2023/07/06 06:27:32;;;;;;;5.32;1.77;;;15.80;99.90;;;;;;5010776;28;20117;-51
2023/07/06 06:29:58;;;;;;;6.93;2.83;;;15.90;99.90;;;;;;5010681;28;20057;-51
2023/07/06 06:32:25;;;;;;;10.10;2.78;;;15.90;99.90;;;;;;5010249;28;20099;-51
2023/07/06 06:34:52;;;;;;;7.47;2.30;;;16.00;99.90;;;;;;4992384;28;20030;-50
2023/07/06 06:37:17;;;;;;;8.07;2.72;;;16.10;99.90;;;;;;5010599;28;20205;-48
2023/07/06 06:39:43;;;;;;;8.30;2.40;;;16.20;99.90;;;;;;5010430;28;20112;-48
2023/07/06 06:42:09;;;;;;;6.65;3.33;;;16.10;99.90;;;;;;5009946;28;20034;-47
2023/07/06 06:44:41;;;;;;;7.82;2.47;;;16.20;99.90;;;;;;4992565;28;20022;-49
2023/07/06 06:47:07;;;;;;;5.18;2.00;;;16.10;99.90;;;;;;5010321;28;20634;-51
2023/07/06 06:49:33;;;;;;;7.75;2.25;;;16.10;99.90;;;;;;5010665;28;20117;-51
2023/07/06 06:52:01;;;;;;;6.95;2.70;;;16.10;99.90;;;;;;5010261;28;20034;-51
2023/07/06 06:54:28;;;;;;;10.90;2.90;;;16.10;99.90;;;;;;5010047;28;20041;-50
2023/07/06 06:56:53;;;;;;;8.25;2.45;;;16.20;99.90;;;;;;5010115;28;20034;-52
2023/07/06 06:59:19;;;;;;;9.32;2.58;;;16.20;99.90;;;;;;5010180;28;20036;-51
2023/07/06 07:01:45;;;;;;;7.15;2.30;;;16.40;99.90;;;;;;5006203;28;20159;-50
2023/07/06 07:04:11;;;;;;;7.20;1.95;;;16.40;99.90;;;;;;4991618;28;20061;-52
2023/07/06 07:06:38;;;;;;;2.85;1.52;;;16.40;99.90;;;;;;5009324;28;20081;-52
2023/07/06 07:09:05;;;;;;;8.15;2.33;;;16.50;99.90;;;;;;5009325;28;20029;-49
2023/07/06 07:11:31;;;;;;;7.32;3.05;;;16.70;99.90;;;;;;5009760;28;20126;-49
2023/07/06 07:13:56;;;;;;;6.20;1.83;;;16.80;99.90;;;;;;5009967;28;20652;-53
2023/07/06 07:16:23;;;;;;;6.38;1.77;;;16.90;99.90;;;;;;5009832;28;20037;-53
2023/07/06 07:18:49;;;;;;;5.60;2.05;;;16.80;99.90;;;;;;5009554;28;20135;-54
2023/07/06 07:21:16;;;;;;;13.65;4.78;;;16.80;99.90;;;;;;5010002;28;20037;-50
2023/07/06 07:23:47;;;;;;;13.23;6.57;;;16.90;99.90;;;;;;4991527;28;20026;-53
2023/07/06 07:26:16;;;;;;;6.72;2.08;;;17.00;99.90;;;;;;5009735;28;20150;-51
2023/07/06 07:28:41;;;;;;;8.18;2.95;;;17.10;99.90;;;;;;5009772;28;20041;-52
2023/07/06 07:31:10;;;;;;;9.07;3.08;;;17.30;99.90;;;;;;4992104;28;20049;-53
2023/07/06 07:33:37;;;;;;;5.65;2.00;;;17.50;99.90;;;;;;4995602;28;20470;-51
2023/07/06 07:36:04;;;;;;;5.55;2.35;;;17.60;99.90;;;;;;4996827;28;20441;-53
2023/07/06 07:38:30;;;;;;;4.82;2.35;;;17.70;99.90;;;;;;5015428;28;20474;-53
2023/07/06 07:41:01;;;;;;;8.43;2.42;;;17.80;99.90;;;;;;5014943;28;20482;-54
2023/07/06 07:43:29;;;;;;;5.28;2.58;;;17.70;99.90;;;;;;5014478;28;20129;-52
2023/07/06 07:46:03;;;;;;;6.47;2.22;;;17.70;99.90;;;;;;5014866;28;20029;-53
2023/07/06 07:48:32;;;;;;;7.95;2.30;;;17.80;99.90;;;;;;5014779;28;20045;-53
2023/07/06 07:51:01;;;;;;;5.88;2.40;;;17.70;99.90;;;;;;5014620;28;20038;-48
2023/07/06 07:53:29;;;;;;;5.28;2.15;;;17.70;99.90;;;;;;5014314;28;20398;-53
2023/07/06 07:55:55;;;;;;;5.85;2.05;;;17.80;99.90;;;;;;5014788;28;20029;-53
2023/07/06 07:58:22;;;;;;;6.78;1.83;;;17.80;99.90;;;;;;5014690;28;20113;-53
2023/07/06 08:00:49;;;;;;;5.63;2.30;;;17.90;99.90;;;;;;5014781;28;20072;-51
2023/07/06 08:03:15;;;;;;;6.38;2.25;;;18.10;99.90;;;;;;5014344;28;20034;-53
2023/07/06 08:05:42;;;;;;;9.05;2.85;;;18.10;99.90;;;;;;5015105;28;20449;-54
2023/07/06 08:08:10;;;;;;;6.35;2.40;;;18.10;99.90;;;;;;5014779;28;20124;-50
2023/07/06 08:10:40;;;;;;;7.68;2.00;;;18.20;99.90;;;;;;5014634;28;20379;-54
2023/07/06 08:13:09;;;;;;;5.28;1.95;;;18.30;99.90;;;;;;5014127;28;20248;-54
2023/07/06 08:15:37;;;;;;;10.35;2.03;;;18.30;99.90;;;;;;5014343;28;20030;-53
2023/07/06 08:18:03;;;;;;;7.88;2.00;;;18.40;99.90;;;;;;5014003;28;20030;-52
2023/07/06 08:20:30;;;;;;;10.70;2.45;;;18.50;99.90;;;;;;5014376;28;20297;-52
2023/07/06 08:22:59;;;;;;;8.07;2.03;;;18.50;99.90;;;;;;5013726;28;20065;-53
2023/07/06 08:25:27;;;;;;;5.13;1.90;;;18.70;99.90;;;;;;5013793;28;20132;-53
2023/07/06 08:27:54;;;;;;;6.63;2.00;;;18.80;99.90;;;;;;5014087;28;20141;-51
2023/07/06 08:30:22;;;;;;;4.95;2.00;;;18.80;99.90;;;;;;5013994;28;20492;-54
2023/07/06 08:32:51;;;;;;;6.38;2.60;;;19.00;99.90;;;;;;5013636;28;20037;-49
2023/07/06 08:35:17;;;;;;;7.20;2.20;;;18.90;99.90;;;;;;4996301;28;20042;-54
2023/07/06 08:37:45;;;;;;;5.25;2.05;;;18.90;99.90;;;;;;5013887;28;20036;-54
2023/07/06 08:40:17;;;;;;;9.32;2.30;;;19.00;99.90;;;;;;5013910;28;20323;-54
2023/07/06 08:42:47;;;;;;;10.07;3.22;;;18.90;99.90;;;;;;5013379;28;20029;-53
2023/07/06 08:45:16;;;;;;;9.32;3.55;;;18.80;99.90;;;;;;5012370;28;20037;-54
2023/07/06 08:47:44;;;;;;;8.43;2.33;;;18.80;99.90;;;;;;5013605;28;20483;-52
2023/07/06 08:50:11;;;;;;;5.72;1.73;;;18.90;99.90;;;;;;5013680;28;20072;-53
2023/07/06 08:52:37;;;;;;;2.85;1.58;;;19.10;99.90;;;;;;4995712;28;20041;-51
2023/07/06 08:55:15;;;;;;;4.63;1.50;;;19.20;99.90;;;;;;4995743;28;20030;-54
2023/07/06 08:57:41;;;;;;;3.10;1.35;;;19.20;99.90;;;;;;5013335;28;20030;-54
2023/07/06 09:00:21;;;;;;;2.50;1.27;;;19.20;99.90;;;;;;5013333;28;20364;-53
2023/07/06 09:02:49;;;;;;;5.53;1.40;;;19.10;99.90;;;;;;5013097;28;20036;-49
2023/07/06 09:05:15;;;;;;;7.20;1.75;;;19.10;99.90;;;;;;5013058;28;20056;-49
2023/07/06 09:07:44;;;;;;;7.82;1.77;;;19.20;99.90;;;;;;5013678;28;20026;-50
2023/07/06 09:10:12;;;;;;;2.90;1.58;;;19.10;99.90;;;;;;5013215;28;20038;-51
2023/07/06 09:12:39;;;;;;;2.97;1.20;;;19.10;99.90;;;;;;5012942;28;20026;-50
2023/07/06 09:15:08;;;;;;;6.75;1.23;;;19.10;99.90;;;;;;5012949;28;20029;-51
2023/07/06 09:17:44;;;;;;;4.38;1.40;;;19.10;99.90;;;;;;5012673;28;20486;-52
2023/07/06 09:20:12;;;;;;;5.00;1.35;;;19.20;99.90;;;;;;5012890;28;20049;-53
2023/07/06 09:22:41;;;;;;;5.63;1.30;;;19.20;99.90;;;;;;5012517;28;20030;-52
2023/07/06 09:25:12;;;;;;;;;;;19.20;99.90;;;;;;4995810;28;20030;-50
2023/07/06 09:27:38;;;;;;;3.25;1.08;;;19.20;99.90;;;;;;5012941;28;20289;-50
2023/07/06 09:30:07;;;;;;;3.38;1.00;;;19.20;99.90;;;;;;5012787;28;20030;-52
2023/07/06 09:32:33;;;;;;;;;;;19.20;99.90;;;;;;5012957;28;20030;-49
2023/07/06 09:35:08;;;;;;;;;;;19.20;99.90;;;;;;5012990;28;20263;-49
2023/07/06 09:37:43;;;;;;;;;;;19.30;99.90;;;;;;5013208;28;19971;-51
2023/07/06 09:40:11;;;;;;;;;;;19.40;99.90;;;;;;5013319;28;20397;-49
2023/07/06 09:42:37;;;;;;;;;;;19.60;99.40;;;;;;5012800;28;19909;-50
2023/07/06 09:45:12;;;;;;;;;;;19.60;99.30;;;;;;5012963;28;19915;-51
2023/07/06 09:47:42;;;;;;;;;;;19.70;99.50;;;;;;5012915;28;19909;-52
2023/07/06 09:50:16;;;;;;;;;;;19.80;99.00;;;;;;5012912;28;19963;-52
2023/07/06 09:52:42;;;;;;;;;;;19.90;99.10;;;;;;5013193;28;19913;-50
2023/07/06 09:55:24;;;;;;;;;;;19.80;99.00;;;;;;4995005;28;20105;-47
2023/07/06 09:57:50;;;;;;;;;;;19.90;98.70;;;;;;5012815;28;20293;-52
2023/07/06 10:00:18;;;;;;;;;;;19.80;97.80;;;;;;5012777;28;19917;-50
2023/07/06 10:02:53;;;;;;;;;;;19.80;98.50;;;;;;5012395;28;19909;-50
2023/07/06 10:05:24;;;;;;;;;;;19.90;98.50;;;;;;4994951;28;20004;-53
2023/07/06 10:08:05;;;;;;;;;;;20.10;98.20;;;;;;5012651;28;19909;-53
2023/07/06 10:10:42;;;;;;;;;;;20.20;98.80;;;;;;5013189;28;19913;-53
2023/07/06 10:13:27;;;;;;;;;;;20.30;98.10;;;;;;5012082;28;19910;-53
2023/07/06 10:15:59;;;;;;;;;;;20.30;96.80;;;;;;5012384;28;20006;-52
2023/07/06 10:18:30;;;;;;;;;;;20.50;97.00;;;;;;5012345;28;20370;-52
2023/07/06 10:21:04;;;;;;;;;;;20.50;96.60;;;;;;5012405;28;19909;-53
2023/07/06 10:23:39;;;;;;;;;;;20.60;96.20;;;;;;5012140;28;19915;-49
2023/07/06 10:26:11;;;;;;;;;;;20.70;95.80;;;;;;5012770;28;20266;-53
2023/07/06 10:28:40;;;;;;;;;;;20.90;96.00;;;;;;5012370;28;19932;-53
2023/07/06 10:31:07;;;;;;;;;;;21.10;95.20;;;;;;5012234;28;19999;-53
2023/07/06 10:33:37;;;;;;;;;;;21.20;95.10;;;;;;5011679;28;19913;-53
2023/07/06 10:36:03;;;;;;;;;;;21.20;95.50;;;;;;5012163;28;19983;-50
2023/07/06 10:38:28;;;;;;;;;;;21.20;94.90;;;;;;5012212;28;19913;-53
2023/07/06 10:41:12;;;;;;;;;;;21.20;95.00;;;;;;5012131;28;20011;-52
2023/07/06 10:43:42;;;;;;;;;;;21.10;95.60;;;;;;5011563;28;19972;-53
2023/07/06 10:46:30;;;;;;;;;;;21.10;95.80;;;;;;5012201;28;19909;-53
2023/07/06 10:49:00;;;;;;;;;;;21.00;94.70;;;;;;5011935;28;20282;-50
2023/07/06 10:51:26;;;;;;;;;;;21.00;94.30;;;;;;5011788;28;20300;-50
2023/07/06 10:53:52;;;;;;;;;;;20.90;94.50;;;;;;5011589;28;19920;-49
2023/07/06 10:56:19;;;;;;;;;;;20.80;95.30;;;;;;5011751;28;19917;-50
2023/07/06 10:58:55;;;;;;;;;;;20.90;95.00;;;;;;5011908;28;19913;-53
2023/07/06 11:01:23;;;;;;;;;;;21.00;94.00;;;;;;4994210;28;19910;-52
2023/07/06 11:03:48;;;;;;;;;;;21.10;94.10;;;;;;5011391;28;19909;-52
2023/07/06 11:06:35;;;;;;;;;;;21.30;94.20;;;;;;5011386;28;19910;-53
2023/07/06 11:09:04;;;;;;;;;;;21.40;93.90;;;;;;5011739;28;19909;-52
2023/07/06 11:11:32;;;;;;;;;;;21.40;93.80;;;;;;5011329;28;19937;-53
2023/07/06 11:14:12;;;;;;;;;;;21.50;93.20;;;;;;5011176;28;19948;-53
2023/07/06 11:16:49;;;;;;;;;;;21.60;93.80;;;;;;5011634;28;19948;-53
2023/07/06 11:19:19;;;;;;;;;;;21.80;93.00;;;;;;5011437;28;19920;-51
2023/07/06 11:21:51;;;;;;;;;;;21.90;93.40;;;;;;5011312;28;19976;-53
2023/07/06 11:24:21;;;;;;;;;;;22.00;93.20;;;;;;4993813;28;19952;-53
2023/07/06 11:26:47;;;;;;;;;;;22.00;94.00;;;;;;5011592;28;19909;-53
2023/07/06 11:29:13;;;;;;;;;;;22.00;93.40;;;;;;5011337;28;19910;-53
2023/07/06 11:31:45;;;;;;;;;;;21.90;93.40;;;;;;5011222;28;19910;-53
2023/07/06 11:34:20;;;;;;;;;;;21.80;93.50;;;;;;5011138;28;19909;-53
2023/07/06 11:37:08;;;;;;;;;;;21.80;94.10;;;;;;5011493;28;19913;-50
2023/07/06 11:39:50;;;;;;;;;;;21.80;92.30;;;;;;5011629;28;19919;-51
2023/07/06 11:42:21;;;;;;;;;;;21.90;91.80;;;;;;5011398;28;19913;-51
2023/07/06 11:44:50;;;;;;;;;;;22.00;91.60;;;;;;5011360;28;19956;-52
2023/07/06 11:47:21;;;;;;;;;;;22.10;91.00;;;;;;5011963;28;19967;-52
2023/07/06 11:49:47;;;;;;;;;;;22.10;91.60;;;;;;4994038;28;19909;-53
2023/07/06 11:52:33;;;;;;;;;;;22.20;91.20;;;;;;5011205;28;19917;-51
2023/07/06 11:55:06;;;;;;;;;;;22.20;91.40;;;;;;5011025;28;20354;-48
2023/07/06 11:57:43;;;;;;;;;;;22.20;90.70;;;;;;5011548;28;19917;-48
2023/07/06 12:00:22;;;;;;;;;;;22.30;91.30;;;;;;5011284;28;19972;-49
2023/07/06 12:03:03;;;;;;;;;;;22.30;90.90;;;;;;5011274;28;19920;-53
2023/07/06 12:05:33;;;;;;;;;;;22.40;91.10;;;;;;5026116;28;19956;-51
2023/07/06 12:08:00;;;;;;;;;;;22.30;90.60;;;;;;5011018;28;19964;-54
2023/07/06 12:10:28;;;;;;;;;;;22.30;90.90;;;;;;5011135;28;19944;-52
2023/07/06 12:12:55;;;;;;;;;;;22.30;91.20;;;;;;5010964;28;20527;-49
2023/07/06 12:15:22;;;;;;;;;;;22.20;91.50;;;;;;4993177;28;20342;-51
2023/07/06 12:17:52;;;;;;;;;;;22.40;91.20;;;;;;5011417;28;19967;-47
2023/07/06 12:20:21;;;;;;;;;;;22.40;89.20;;;;;;5014833;28;20373;-48
2023/07/06 12:22:50;;;;;;;;;;;22.60;89.70;;;;;;5014673;28;20351;-51
2023/07/06 12:25:17;;;;;;;;;;;22.50;88.10;;;;;;5014656;28;20345;-47
2023/07/06 12:27:42;;;;;;;;;;;22.50;89.30;;;;;;5014437;28;19909;-50
2023/07/06 12:30:12;;;;;;;;;;;22.60;88.80;;;;;;5014379;28;20385;-50
2023/07/06 12:32:37;;;;;;;;;;;22.60;88.30;;;;;;4997009;28;19913;-49
2023/07/06 12:35:04;;;;;;;;;;;22.50;87.40;;;;;;5014196;28;19918;-52
2023/07/06 12:37:30;;;;;;;;;;;22.40;88.20;;;;;;5014299;28;19917;-52
2023/07/06 12:39:56;;;;;;;;;;;22.40;88.50;;;;;;5014478;28;19999;-48
2023/07/06 12:42:21;;;;;;;;;;;22.30;90.10;;;;;;5014280;28;19956;-48
2023/07/06 12:44:50;;;;;;;;;;;22.40;90.20;;;;;;5014131;28;19937;-53
2023/07/06 12:47:19;;;;;;;;;;;22.50;89.60;;;;;;5014113;28;20006;-52
2023/07/06 12:49:45;;;;;;;;;;;22.80;90.40;;;;;;5014282;28;19909;-49
2023/07/06 12:52:12;;;;;;;;;;;23.00;89.70;;;;;;5014199;28;19917;-49
2023/07/06 12:54:46;;;;;;;;;;;23.00;84.50;;;;;;5013973;28;19913;-50
2023/07/06 12:57:25;;;;;;;;;;;22.90;84.20;;;;;;5013674;28;19964;-47
2023/07/06 12:59:54;;;;;;;;;;;22.70;84.90;;;;;;5013857;28;20389;-48
2023/07/06 13:02:21;;;;;;;;;;;22.50;85.70;;;;;;5013759;28;20297;-51
2023/07/06 13:04:50;;;;;;;;;;;22.40;87.40;;;;;;5013817;28;19916;-52
2023/07/06 13:07:17;;;;;;;;;;;22.30;89.50;;;;;;4996316;28;19910;-52
2023/07/06 13:09:42;;;;;;;;;;;22.10;87.50;;;;;;5013797;28;19996;-49
2023/07/06 13:12:09;;;;;;;;;;;21.90;88.60;;;;;;5013745;28;20429;-48
2023/07/06 13:14:39;;;;;;;;;;;22.00;89.90;;;;;;5013601;28;19909;-52
2023/07/06 13:17:06;;;;;;;;;;;22.20;87.70;;;;;;5013674;28;19953;-50
2023/07/06 13:19:33;;;;;;;;;;;22.30;85.80;;;;;;5013683;28;20033;-49
2023/07/06 13:21:59;;;;;;;;;;;22.30;86.40;;;;;;5013595;28;19964;-50